Time;durP1;ratioP1;P1;durP2;ratioP2;P2;SDS_P1;SDS_P2;PMS_P1;PMS_P2;Temp;Humidity;BMP_temperature;BMP_pressure;BME280_temperature;BME280_humidity;BME280_pressure;Samples;Min_cycle;Max_cycle;Signal;HPM_P1;HPM_P2
2021/05/07 00:01:10;;;;;;;6.12;3.85;;;;;;;4.66;71.24;100266.16;1799822;79;21709;-70
2021/05/07 00:03:40;;;;;;;6.25;3.40;;;;;;;4.63;71.24;100264.48;1800955;79;21155;-71
2021/05/07 00:06:10;;;;;;;6.35;3.52;;;;;;;4.57;71.29;100268.82;1794453;77;21534;-71
2021/05/07 00:08:40;;;;;;;6.00;3.40;;;;;;;4.54;71.35;100267.98;1797635;79;22355;-70
2021/05/07 00:11:15;;;;;;;8.75;3.50;;;;;;;4.53;71.41;100266.86;1798670;79;21202;-72
2021/05/07 00:13:46;;;;;;;7.67;4.25;;;;;;;4.51;71.48;100271.06;1788052;79;21226;-71
2021/05/07 00:16:15;;;;;;;8.28;4.17;;;;;;;4.51;71.54;100275.52;1806841;79;21175;-72
2021/05/07 00:18:43;;;;;;;6.08;3.80;;;;;;;4.49;71.60;100277.60;1806814;79;21233;-71
2021/05/07 00:21:12;;;;;;;9.50;4.42;;;;;;;4.49;71.64;100275.76;1801901;79;21190;-71
2021/05/07 00:23:41;;;;;;;7.45;3.65;;;;;;;4.47;71.62;100277.81;1790100;79;21629;-71
2021/05/07 00:26:09;;;;;;;6.67;4.10;;;;;;;4.45;71.63;100276.72;1809438;79;21142;-70
2021/05/07 00:28:37;;;;;;;7.37;4.50;;;;;;;4.45;71.63;100283.86;1800116;79;21199;-72
2021/05/07 00:31:05;;;;;;;7.40;4.45;;;;;;;4.48;71.61;100281.28;1798785;79;21174;-71
2021/05/07 00:33:49;;;;;;;9.00;3.70;;;;;;;4.47;71.51;100269.88;1814072;77;22799;-72
2021/05/07 00:36:17;;;;;;;8.60;4.22;;;;;;;4.33;71.59;100265.27;1791955;79;21174;-71
2021/05/07 00:38:45;;;;;;;7.85;3.83;;;;;;;4.26;71.72;100264.56;1786083;78;21258;-72
2021/05/07 00:41:14;;;;;;;7.53;3.90;;;;;;;4.18;71.93;100256.94;1803248;79;21152;-72
2021/05/07 00:43:41;;;;;;;6.83;4.30;;;;;;;4.11;72.15;100261.48;1812590;79;21511;-72
2021/05/07 00:46:10;;;;;;;6.92;4.08;;;;;;;4.07;72.29;100255.03;1786969;79;21136;-71
2021/05/07 00:48:40;;;;;;;6.17;3.83;;;;;;;4.04;72.51;100258.91;1797354;77;21143;-71
2021/05/07 00:51:08;;;;;;;6.92;4.20;;;;;;;3.99;72.65;100255.62;1804316;77;22219;-71
2021/05/07 00:53:37;;;;;;;6.75;4.17;;;;;;;3.99;72.87;100253.50;1796326;79;21579;-71
2021/05/07 00:56:05;;;;;;;8.08;5.10;;;;;;;3.98;73.02;100246.58;1799669;78;21006;-71
2021/05/07 00:58:33;;;;;;;8.55;4.40;;;;;;;3.95;73.26;100251.81;1794263;77;21139;-71
2021/05/07 01:01:01;;;;;;;9.60;5.80;;;;;;;3.90;73.50;100258.26;1806718;77;21095;-72
2021/05/07 01:03:30;;;;;;;8.30;5.40;;;;;;;3.84;73.71;100255.17;1801161;79;21185;-71
2021/05/07 01:05:59;;;;;;;8.70;5.75;;;;;;;3.74;73.91;100250.91;1791889;79;21178;-72
2021/05/07 01:08:28;;;;;;;11.15;5.95;;;;;;;3.72;74.05;100259.07;1769999;77;21168;-71
2021/05/07 01:10:58;;;;;;;10.03;5.47;;;;;;;3.68;74.17;100257.06;1795387;79;21201;-71
2021/05/07 01:13:27;;;;;;;9.23;5.10;;;;;;;3.68;74.30;100259.70;1789114;79;21119;-71
2021/05/07 01:16:07;;;;;;;8.97;5.43;;;;;;;3.75;74.39;100260.44;1824570;77;22561;-72
2021/05/07 01:18:36;;;;;;;10.23;5.03;;;;;;;3.73;74.49;100254.59;1830759;76;21057;-70
2021/05/07 01:21:04;;;;;;;7.47;5.58;;;;;;;3.75;74.57;100249.88;1841706;77;22154;-71
2021/05/07 01:23:35;;;;;;;7.58;4.78;;;;;;;3.76;74.56;100245.71;1839996;77;21181;-71
2021/05/07 01:26:03;;;;;;;7.80;4.80;;;;;;;3.79;74.54;100252.39;1802557;79;21096;-71
2021/05/07 01:28:33;;;;;;;8.40;5.20;;;;;;;3.78;74.53;100251.28;1858305;77;21024;-72
2021/05/07 01:31:02;;;;;;;10.38;5.10;;;;;;;3.79;74.52;100260.32;1811286;78;21179;-71
2021/05/07 01:33:40;;;;;;;10.23;5.20;;;;;;;3.83;74.49;100260.17;1857509;76;23269;-70
2021/05/07 01:36:08;;;;;;;6.78;4.75;;;;;;;3.76;74.46;100256.28;1827412;77;21156;-71
2021/05/07 01:38:37;;;;;;;8.53;4.97;;;;;;;3.72;74.45;100253.78;1830515;77;21280;-70
2021/05/07 01:41:07;;;;;;;10.00;5.22;;;;;;;3.65;74.48;100256.18;1829614;76;21192;-71
2021/05/07 01:43:41;;;;;;;9.10;4.70;;;;;;;3.58;74.57;100260.20;1826920;77;21049;-71
2021/05/07 01:46:10;;;;;;;8.88;4.97;;;;;;;3.49;74.69;100255.73;1821205;77;21154;-71
2021/05/07 01:48:39;;;;;;;8.00;5.05;;;;;;;3.38;74.86;100256.43;1817079;76;21482;-70
2021/05/07 01:51:08;;;;;;;7.97;5.03;;;;;;;3.28;75.10;100258.23;1828732;77;21355;-71
2021/05/07 01:53:39;;;;;;;8.43;5.30;;;;;;;3.24;75.32;100258.90;1825520;76;21053;-71
2021/05/07 01:56:07;;;;;;;8.13;5.28;;;;;;;3.20;75.50;100253.25;1817420;77;21021;-71
2021/05/07 01:58:39;;;;;;;9.23;4.67;;;;;;;3.20;75.69;100257.72;1821596;76;21052;-71
2021/05/07 02:01:08;;;;;;;8.20;5.05;;;;;;;3.19;75.87;100256.08;1823278;76;21615;-71
2021/05/07 02:03:36;;;;;;;6.92;4.40;;;;;;;3.15;76.09;100260.98;1829697;77;22241;-72
2021/05/07 02:06:12;;;;;;;9.80;5.50;;;;;;;3.13;76.24;100259.61;1813485;77;21136;-71
2021/05/07 02:08:42;;;;;;;10.05;5.72;;;;;;;3.09;76.39;100261.04;1836048;76;21133;-71
2021/05/07 02:11:10;;;;;;;9.73;5.60;;;;;;;3.09;76.54;100272.91;1832447;76;21219;-72
2021/05/07 02:13:39;;;;;;;8.80;5.87;;;;;;;3.11;76.69;100270.87;1832660;76;21750;-71
2021/05/07 02:16:07;;;;;;;8.98;5.40;;;;;;;3.17;76.81;100272.15;1840876;77;22114;-72
2021/05/07 02:18:35;;;;;;;7.95;5.33;;;;;;;3.25;76.95;100274.51;1826671;77;21104;-72
2021/05/07 02:21:05;;;;;;;10.45;5.72;;;;;;;3.31;77.01;100279.44;1825139;76;21164;-72
2021/05/07 02:23:35;;;;;;;9.53;5.55;;;;;;;3.34;77.12;100281.66;1828970;77;21175;-72
2021/05/07 02:26:03;;;;;;;10.03;4.95;;;;;;;3.39;77.18;100279.19;1816496;77;21167;-71
2021/05/07 02:28:42;;;;;;;8.23;5.58;;;;;;;3.43;77.26;100275.08;1830799;77;21610;-71
2021/05/07 02:31:10;;;;;;;7.53;5.03;;;;;;;3.45;77.38;100273.02;1827175;76;21108;-71
2021/05/07 02:33:39;;;;;;;8.23;5.12;;;;;;;3.48;77.51;100279.70;1814738;76;21164;-71
2021/05/07 02:36:09;;;;;;;7.78;5.25;;;;;;;3.52;77.62;100277.75;1817467;78;21129;-71
2021/05/07 02:38:38;;;;;;;8.25;5.30;;;;;;;3.60;77.72;100282.45;1800476;78;21556;-71
2021/05/07 02:41:07;;;;;;;8.58;5.45;;;;;;;3.71;77.81;100287.81;1814794;76;22266;-71
2021/05/07 02:43:36;;;;;;;9.33;5.20;;;;;;;3.86;77.80;100286.16;1812501;78;21101;-70
2021/05/07 02:46:04;;;;;;;7.90;5.20;;;;;;;3.98;77.80;100285.73;1828108;78;21188;-70
2021/05/07 02:48:33;;;;;;;8.43;5.33;;;;;;;4.06;77.80;100275.89;1803270;76;21200;-71
2021/05/07 02:51:01;;;;;;;10.48;5.37;;;;;;;4.15;77.67;100277.20;1811913;77;21251;-70
2021/05/07 02:53:30;;;;;;;8.53;5.40;;;;;;;4.26;77.44;100269.04;1815234;78;22328;-70
2021/05/07 02:55:58;;;;;;;10.43;5.67;;;;;;;4.33;77.11;100269.24;1821292;78;21215;-71
2021/05/07 02:58:26;;;;;;;10.05;6.08;;;;;;;4.41;76.84;100269.47;1820736;78;21569;-70
2021/05/07 03:00:55;;;;;;;9.83;6.20;;;;;;;4.45;76.55;100264.83;1817273;78;21188;-71
2021/05/07 03:03:23;;;;;;;10.10;5.70;;;;;;;4.50;76.37;100264.14;1813730;78;21172;-71
2021/05/07 03:05:51;;;;;;;8.30;5.50;;;;;;;4.50;76.24;100272.08;1801807;78;22114;-71
2021/05/07 03:08:24;;;;;;;10.60;5.85;;;;;;;4.52;76.17;100269.22;1811102;78;21120;-71
2021/05/07 03:10:51;;;;;;;9.43;5.60;;;;;;;4.55;76.09;100276.71;1806403;76;21153;-71
2021/05/07 03:13:19;;;;;;;9.08;5.33;;;;;;;4.58;76.01;100282.36;1814686;78;21393;-71
2021/05/07 03:15:49;;;;;;;9.73;5.50;;;;;;;4.62;75.84;100282.72;1819992;78;21120;-71
2021/05/07 03:18:19;;;;;;;9.48;5.42;;;;;;;4.64;75.68;100279.31;1799035;78;22700;-70
2021/05/07 03:20:49;;;;;;;8.98;5.40;;;;;;;4.67;75.52;100282.83;1801867;78;21414;-71
2021/05/07 03:23:17;;;;;;;10.28;5.50;;;;;;;4.70;75.38;100280.58;1817427;76;21108;-72
2021/05/07 03:25:46;;;;;;;8.85;4.95;;;;;;;4.79;75.25;100282.36;1820486;78;21169;-71
2021/05/07 03:28:14;;;;;;;9.45;5.62;;;;;;;4.90;75.03;100280.78;1807818;78;21577;-71
2021/05/07 03:30:42;;;;;;;9.30;5.25;;;;;;;5.02;74.83;100282.15;1825322;78;21112;-71
2021/05/07 03:33:10;;;;;;;10.13;5.53;;;;;;;5.15;74.62;100285.91;1810340;76;21185;-71
2021/05/07 03:35:38;;;;;;;8.15;5.05;;;;;;;5.30;74.40;100286.30;1809261;78;21529;-71
2021/05/07 03:38:06;;;;;;;7.72;4.83;;;;;;;5.45;74.12;100283.18;1812770;78;21097;-71
2021/05/07 03:40:34;;;;;;;9.05;5.28;;;;;;;5.60;73.88;100287.52;1816933;77;21073;-72
2021/05/07 03:43:03;;;;;;;8.28;5.20;;;;;;;5.77;73.71;100290.27;1815667;78;21216;-71
2021/05/07 03:45:31;;;;;;;8.73;5.45;;;;;;;5.96;73.55;100294.16;1817436;76;21117;-70
2021/05/07 03:47:59;;;;;;;11.48;5.78;;;;;;;6.16;73.36;100296.43;1808916;78;21112;-70
2021/05/07 03:50:28;;;;;;;9.13;5.20;;;;;;;6.34;73.14;100294.92;1810689;78;21564;-72
2021/05/07 03:52:56;;;;;;;10.82;5.72;;;;;;;6.55;72.91;100290.31;1809982;76;21548;-72
2021/05/07 03:55:24;;;;;;;8.40;5.60;;;;;;;6.76;72.78;100282.19;1807732;78;21184;-71
2021/05/07 03:57:52;;;;;;;9.88;5.40;;;;;;;6.99;72.58;100289.76;1823598;76;21234;-72
2021/05/07 04:00:25;;;;;;;9.33;5.25;;;;;;;7.22;72.38;100292.27;1828569;78;21118;-71
2021/05/07 04:02:53;;;;;;;7.75;5.05;;;;;;;7.42;72.17;100289.66;1818401;76;21153;-71
2021/05/07 04:05:22;;;;;;;8.00;5.00;;;;;;;7.59;71.92;100291.77;1774474;80;21156;-71
2021/05/07 04:10:31;;;;;;;8.97;5.10;;;;;;;7.94;71.61;100289.34;1843948;77;23291;-71
2021/05/07 04:15:31;;;;;;;7.25;4.60;;;;;;;8.10;71.36;100293.81;1820833;77;21287;-71
2021/05/07 04:17:59;;;;;;;9.03;4.78;;;;;;;8.21;71.26;100292.08;1827251;77;21164;-70
2021/05/07 04:20:28;;;;;;;7.40;4.37;;;;;;;8.29;71.04;100289.50;1832749;78;21199;-71
2021/05/07 04:22:56;;;;;;;8.10;4.60;;;;;;;8.36;70.83;100287.48;1823801;77;21179;-72
2021/05/07 04:25:24;;;;;;;8.28;4.65;;;;;;;8.42;70.54;100290.48;1818364;78;21604;-71
2021/05/07 04:27:52;;;;;;;8.35;5.08;;;;;;;8.48;70.33;100288.69;1828603;76;22293;-71
2021/05/07 04:30:22;;;;;;;9.45;4.40;;;;;;;8.52;70.17;100286.59;1824909;76;21139;-71
2021/05/07 04:32:50;;;;;;;8.13;5.08;;;;;;;8.58;69.88;100296.25;1832081;78;21029;-71
2021/05/07 04:35:18;;;;;;;7.95;4.50;;;;;;;8.71;69.74;100290.27;1818889;76;21552;-71
2021/05/07 04:37:47;;;;;;;10.90;4.85;;;;;;;8.80;69.59;100300.75;1833503;78;21141;-72
2021/05/07 04:40:15;;;;;;;9.03;4.67;;;;;;;8.82;69.46;100297.32;1832883;77;21284;-72
2021/05/07 04:42:43;;;;;;;9.23;4.85;;;;;;;8.86;69.40;100291.76;1821462;78;21571;-72
2021/05/07 04:45:13;;;;;;;9.18;5.12;;;;;;;8.92;69.22;100293.42;1820866;78;21123;-72
2021/05/07 04:47:42;;;;;;;9.73;5.25;;;;;;;9.01;69.13;100299.88;1799850;77;21643;-73
2021/05/07 04:50:13;;;;;;;7.33;4.70;;;;;;;9.13;69.01;100290.40;1829218;78;21123;-72
2021/05/07 04:52:42;;;;;;;8.70;4.97;;;;;;;9.21;68.72;100293.91;1787797;78;21200;-72
2021/05/07 04:55:14;;;;;;;9.78;5.08;;;;;;;9.33;68.57;100291.09;1821230;78;21108;-72
2021/05/07 04:57:42;;;;;;;9.15;5.22;;;;;;;9.45;68.30;100286.92;1809897;78;21215;-72
2021/05/07 05:00:15;;;;;;;9.55;5.40;;;;;;;9.58;68.11;100281.95;1815766;76;21639;-72
2021/05/07 05:02:42;;;;;;;7.40;4.70;;;;;;;9.80;67.84;100283.12;1815211;78;21100;-71
2021/05/07 05:05:14;;;;;;;9.25;4.85;;;;;;;10.03;67.41;100280.58;1815038;76;22757;-71
2021/05/07 05:07:52;;;;;;;8.68;4.92;;;;;;;10.14;66.74;100273.45;1813221;78;21662;-70
2021/05/07 05:10:21;;;;;;;10.48;5.37;;;;;;;10.22;66.27;100277.47;1811489;78;21081;-69
2021/05/07 05:12:49;;;;;;;10.35;4.62;;;;;;;10.25;65.84;100272.41;1809799;78;21238;-71
2021/05/07 05:15:19;;;;;;;10.53;4.72;;;;;;;10.37;65.65;100269.55;1823635;78;21040;-71
2021/05/07 05:17:49;;;;;;;7.20;4.50;;;;;;;10.58;65.22;100267.73;1814228;76;21243;-71
2021/05/07 05:20:18;;;;;;;7.12;3.95;;;;;;;10.79;64.57;100273.40;1790482;77;21155;-71
2021/05/07 05:22:46;;;;;;;7.33;4.20;;;;;;;10.98;63.61;100268.31;1815238;78;21140;-71
2021/05/07 05:25:14;;;;;;;7.15;4.17;;;;;;;11.17;62.93;100271.27;1820365;77;21116;-71
2021/05/07 05:27:42;;;;;;;7.97;3.98;;;;;;;11.31;62.06;100278.21;1812481;78;21148;-71
2021/05/07 05:30:12;;;;;;;7.47;4.25;;;;;;;11.46;60.87;100269.39;1849439;77;22310;-71
2021/05/07 05:32:41;;;;;;;7.42;4.20;;;;;;;11.58;60.03;100273.09;1821170;78;21478;-70
2021/05/07 05:35:10;;;;;;;8.83;4.17;;;;;;;11.70;59.49;100269.61;1812544;77;21117;-71
2021/05/07 05:37:39;;;;;;;9.45;4.28;;;;;;;11.84;59.18;100276.52;1821198;77;21041;-70
2021/05/07 05:40:09;;;;;;;12.95;4.60;;;;;;;11.99;58.46;100271.70;1811577;78;21144;-72
2021/05/07 05:42:39;;;;;;;8.80;4.03;;;;;;;12.19;58.15;100271.63;1809282;78;21193;-71
2021/05/07 05:45:08;;;;;;;9.20;4.10;;;;;;;12.40;57.47;100273.66;1810218;78;21187;-71
2021/05/07 05:47:36;;;;;;;6.92;3.65;;;;;;;12.62;56.91;100271.39;1807131;78;21591;-71
2021/05/07 05:50:07;;;;;;;8.83;4.42;;;;;;;12.83;54.90;100268.58;1789326;78;21160;-72
2021/05/07 05:52:37;;;;;;;8.00;3.60;;;;;;;13.03;53.36;100256.91;1814987;77;22526;-71
2021/05/07 05:55:07;;;;;;;7.90;3.30;;;;;;;13.24;52.11;100259.72;1816844;77;22534;-69
2021/05/07 05:57:35;;;;;;;6.33;2.90;;;;;;;13.46;48.98;100257.09;1808841;78;21432;-70
2021/05/07 06:00:05;;;;;;;5.93;3.00;;;;;;;13.64;47.25;100248.33;1821613;78;21351;-68
2021/05/07 06:02:35;;;;;;;;;;;;;;;13.84;46.28;100254.81;1840438;77;21415;-68
2021/05/07 06:05:06;;;;;;;7.23;3.10;;;;;;;14.06;45.63;100252.16;1834111;78;20219;-71
2021/05/07 06:07:34;;;;;;;6.25;2.60;;;;;;;14.28;44.20;100256.97;1793578;78;21455;-69
2021/05/07 06:10:07;;;;;;;6.20;2.47;;;;;;;14.47;43.72;100251.06;1826587;77;21175;-69
2021/05/07 06:12:35;;;;;;;5.60;3.10;;;;;;;14.69;43.44;100255.11;1825529;78;21346;-70
2021/05/07 06:15:06;;;;;;;9.00;3.20;;;;;;;14.89;43.07;100254.80;1820508;77;21352;-72
2021/05/07 06:17:34;;;;;;;5.30;2.90;;;;;;;15.12;42.73;100251.73;1804894;79;21362;-73
2021/05/07 06:20:07;;;;;;;8.37;3.00;;;;;;;15.31;42.45;100257.08;1814266;78;21472;-75
2021/05/07 06:22:35;;;;;;;5.03;2.53;;;;;;;15.45;41.83;100251.72;1840674;77;21592;-75
2021/05/07 06:25:11;;;;;;;6.53;2.57;;;;;;;15.51;40.62;100248.39;1837784;77;21539;-75
2021/05/07 06:27:40;;;;;;;7.07;2.90;;;;;;;15.64;40.79;100252.99;1802572;79;21466;-75
2021/05/07 06:30:11;;;;;;;6.10;2.73;;;;;;;15.64;40.79;100252.99;1825876;77;21563;-71
2021/05/07 06:32:40;;;;;;;8.07;2.43;;;;;;;15.75;40.22;100246.89;1821064;78;22205;-71
2021/05/07 06:35:10;;;;;;;6.60;2.23;;;;;;;15.91;40.45;100252.23;1802185;78;21618;-70
2021/05/07 06:37:40;;;;;;;6.58;2.70;;;;;;;16.10;40.49;100250.77;1821491;78;21592;-71
2021/05/07 06:40:08;;;;;;;5.60;2.30;;;;;;;16.27;39.51;100250.94;1828929;78;21104;-71
2021/05/07 06:42:38;;;;;;;6.33;2.73;;;;;;;16.39;38.92;100254.47;1820204;78;21850;-70
2021/05/07 06:45:10;;;;;;;7.37;2.53;;;;;;;16.50;38.84;100249.09;1821565;78;21864;-69
2021/05/07 06:47:38;;;;;;;7.00;2.50;;;;;;;16.63;38.40;100244.21;1819595;78;21820;-71
2021/05/07 06:50:07;;;;;;;7.07;2.30;;;;;;;16.86;37.30;100236.17;1806264;79;22343;-70
2021/05/07 06:52:37;;;;;;;7.50;2.30;;;;;;;16.86;37.30;100236.17;1814356;78;21175;-70
2021/05/07 06:55:06;;;;;;;4.80;2.13;;;;;;;17.06;37.06;100207.89;1812865;77;22162;-72
2021/05/07 06:57:37;;;;;;;4.70;1.90;;;;;;;17.19;36.15;100228.60;1817139;77;21376;-75
2021/05/07 07:00:09;;;;;;;6.00;1.77;;;;;;;17.36;35.71;100227.89;1818998;78;21580;-75
2021/05/07 07:02:36;;;;;;;6.72;1.90;;;;;;;17.52;35.09;100227.73;1824821;78;21069;-76
2021/05/07 07:05:05;;;;;;;5.20;1.97;;;;;;;17.74;34.84;100219.33;1850122;77;21638;-74
2021/05/07 07:07:35;;;;;;;4.97;1.73;;;;;;;17.94;34.16;100219.33;1847359;76;21052;-77
2021/05/07 07:10:05;;;;;;;5.50;1.50;;;;;;;18.11;34.30;100218.57;1838397;77;21180;-78
2021/05/07 07:12:33;;;;;;;3.03;1.30;;;;;;;18.23;32.79;100221.46;1826014;77;21603;-78
2021/05/07 07:15:01;;;;;;;4.77;1.23;;;;;;;18.35;32.00;100214.84;1830818;77;21161;-78
2021/05/07 07:17:30;;;;;;;3.13;1.30;;;;;;;18.44;31.52;100207.55;1803625;78;21810;-77
2021/05/07 07:19:58;;;;;;;4.63;1.33;;;;;;;18.53;31.94;100205.41;1839289;77;21646;-79
2021/05/07 07:22:28;;;;;;;2.13;1.10;;;;;;;18.58;30.46;100210.64;1857052;77;21354;-76
2021/05/07 07:24:56;;;;;;;3.17;1.20;;;;;;;18.52;30.41;100212.70;1854529;77;21569;-81
2021/05/07 07:27:24;;;;;;;2.43;1.10;;;;;;;18.43;28.95;100203.26;1818446;77;21592;-78
2021/05/07 07:29:52;;;;;;;3.30;1.27;;;;;;;18.26;28.97;100209.98;1807888;77;21150;-78
2021/05/07 07:32:20;;;;;;;1.73;1.10;;;;;;;18.14;29.16;100208.48;1822331;78;21205;-77
2021/05/07 07:34:49;;;;;;;3.83;1.50;;;;;;;18.07;29.02;100212.21;1808282;78;21240;-76
2021/05/07 07:37:17;;;;;;;2.30;1.20;;;;;;;17.93;28.79;100215.84;1820572;77;21637;-76
2021/05/07 07:39:46;;;;;;;2.27;1.20;;;;;;;17.83;29.48;100203.16;1811914;77;21202;-76
2021/05/07 07:42:14;;;;;;;3.87;1.53;;;;;;;17.77;29.33;100210.63;1820351;77;21129;-77
2021/05/07 07:44:43;;;;;;;2.10;1.20;;;;;;;17.68;29.32;100207.06;1799092;78;21056;-76
2021/05/07 07:47:12;;;;;;;4.10;1.57;;;;;;;17.53;29.43;100205.56;1821321;78;21450;-75
2021/05/07 07:49:40;;;;;;;6.27;1.40;;;;;;;17.45;30.08;100205.00;1816767;77;21163;-77
2021/05/07 07:52:09;;;;;;;3.17;1.50;;;;;;;17.42;30.43;100201.01;1828114;78;21132;-75
2021/05/07 07:54:38;;;;;;;3.33;1.35;;;;;;;17.42;30.80;100198.31;1817521;78;21164;-76
2021/05/07 07:57:07;;;;;;;3.53;1.40;;;;;;;17.42;30.81;100200.22;1815264;78;21210;-77
2021/05/07 07:59:35;;;;;;;4.17;1.23;;;;;;;17.38;30.89;100200.60;1822594;77;22627;-76
2021/05/07 08:02:03;;;;;;;3.97;1.47;;;;;;;17.34;30.93;100199.87;1815540;78;21114;-78
2021/05/07 08:04:31;;;;;;;4.33;1.30;;;;;;;17.29;30.83;100191.89;1815794;78;21149;-75
2021/05/07 08:07:00;;;;;;;3.03;1.17;;;;;;;17.27;31.07;100198.70;1834387;77;21187;-75
2021/05/07 08:09:28;;;;;;;3.17;1.50;;;;;;;17.26;31.84;100192.52;1805632;78;21154;-76
2021/05/07 08:11:56;;;;;;;4.00;1.20;;;;;;;17.24;31.61;100196.09;1798528;77;22300;-78
2021/05/07 08:14:26;;;;;;;3.57;1.30;;;;;;;17.23;31.25;100190.98;1797049;77;21623;-76
2021/05/07 08:16:56;;;;;;;3.20;1.20;;;;;;;17.19;31.25;100177.33;1821783;78;21069;-78
2021/05/07 08:19:25;;;;;;;3.30;1.13;;;;;;;17.19;31.64;100180.58;1806474;78;21619;-77
2021/05/07 08:21:55;;;;;;;4.73;1.60;;;;;;;17.24;31.91;100183.13;1821899;78;21170;-78
2021/05/07 08:24:24;;;;;;;2.80;1.20;;;;;;;17.32;32.10;100187.78;1818153;78;21337;-76
2021/05/07 08:26:52;;;;;;;2.70;1.20;;;;;;;17.40;31.50;100184.31;1825251;78;21179;-74
2021/05/07 08:29:21;;;;;;;2.50;1.10;;;;;;;17.46;31.53;100183.06;1817300;77;21137;-76
2021/05/07 08:31:48;;;;;;;3.60;1.30;;;;;;;17.53;31.80;100178.01;1816303;78;21155;-76
2021/05/07 08:34:16;;;;;;;2.07;0.90;;;;;;;17.60;31.42;100180.25;1810106;77;21168;-79
2021/05/07 08:36:44;;;;;;;1.67;1.00;;;;;;;17.62;31.25;100186.70;1849530;77;21210;-77
2021/05/07 08:39:12;;;;;;;4.60;1.20;;;;;;;17.57;30.84;100174.95;1841693;77;21206;-77
2021/05/07 08:41:43;;;;;;;2.50;0.93;;;;;;;17.53;30.51;100173.95;1814506;78;21262;-77
2021/05/07 08:44:11;;;;;;;1.77;0.90;;;;;;;17.51;30.21;100165.95;1818525;77;21611;-75
2021/05/07 08:46:42;;;;;;;2.33;1.07;;;;;;;17.52;30.58;100175.63;1817877;77;21246;-77
2021/05/07 08:49:11;;;;;;;1.40;0.97;;;;;;;17.55;31.04;100180.41;1817654;78;21139;-78
2021/05/07 08:51:40;;;;;;;4.83;1.20;;;;;;;17.49;30.11;100168.16;1845122;76;21215;-78
2021/05/07 08:54:08;;;;;;;1.53;0.90;;;;;;;17.34;30.34;100189.08;1800879;78;21187;-76
2021/05/07 08:56:37;;;;;;;2.00;0.90;;;;;;;17.20;30.89;100173.51;1818272;78;21242;-76
2021/05/07 08:59:05;;;;;;;2.57;1.00;;;;;;;17.12;31.17;100174.27;1824342;78;21643;-75
2021/05/07 09:01:48;;;;;;;1.63;0.90;;;;;;;17.03;31.03;100178.27;1827227;78;22085;-75
2021/05/07 09:04:18;;;;;;;1.73;0.97;;;;;;;16.94;31.15;100176.06;1822355;77;21195;-77
2021/05/07 09:06:52;;;;;;;1.60;0.90;;;;;;;16.86;31.23;100168.73;1814618;78;21156;-78
2021/05/07 09:09:29;;;;;;;1.77;0.97;;;;;;;16.83;31.66;100172.05;1798939;77;21183;-76
2021/05/07 09:12:02;;;;;;;1.70;0.90;;;;;;;16.86;32.03;100163.34;1811539;78;21595;-77
2021/05/07 09:14:30;;;;;;;3.00;1.00;;;;;;;16.95;32.09;100164.19;1851817;77;21236;-75
2021/05/07 09:17:03;;;;;;;3.50;1.10;;;;;;;17.06;32.31;100163.37;1847057;77;21235;-77
2021/05/07 09:19:34;;;;;;;3.00;1.00;;;;;;;17.17;32.66;100155.23;1846038;76;21160;-75
2021/05/07 09:22:02;;;;;;;2.37;1.00;;;;;;;17.28;32.32;100163.88;1843946;77;21183;-75
2021/05/07 09:24:34;;;;;;;2.47;1.10;;;;;;;17.39;32.49;100159.78;1838270;77;21163;-78
2021/05/07 09:27:07;;;;;;;3.73;1.20;;;;;;;17.53;32.42;100150.22;1832547;77;22274;-75
2021/05/07 09:29:36;;;;;;;2.33;1.00;;;;;;;17.73;32.31;100150.19;1803481;78;21426;-77
2021/05/07 09:32:04;;;;;;;3.83;0.90;;;;;;;17.94;32.08;100143.67;1776110;78;21234;-76
2021/05/07 09:34:37;;;;;;;2.03;1.00;;;;;;;18.07;31.36;100132.48;1825263;77;21205;-75
2021/05/07 09:37:17;;;;;;;2.57;1.10;;;;;;;18.14;31.45;100134.94;1806624;78;21136;-76
2021/05/07 09:42:35;;;;;;;2.47;1.00;;;;;;;18.45;30.71;100117.18;1757771;79;20978;-78
2021/05/07 09:45:05;;;;;;;2.93;1.00;;;;;;;18.55;31.25;100108.50;1727791;81;21184;-76
2021/05/07 09:47:32;;;;;;;2.37;1.00;;;;;;;18.71;31.45;100112.28;1779584;80;21226;-78
2021/05/07 09:50:06;;;;;;;3.17;1.00;;;;;;;18.86;31.27;100103.69;1748904;80;21226;-76
2021/05/07 09:52:34;;;;;;;2.70;1.00;;;;;;;19.02;31.43;100105.31;1738844;81;21207;-77
2021/05/07 09:55:02;;;;;;;3.97;1.00;;;;;;;19.16;31.44;100108.59;1803121;78;21175;-77
2021/05/07 09:57:29;;;;;;;1.77;0.93;;;;;;;19.29;30.69;100101.36;1798614;78;21591;-76
2021/05/07 09:59:57;;;;;;;2.73;1.00;;;;;;;19.38;30.60;100089.94;1790291;78;21180;-75
2021/05/07 10:02:25;;;;;;;1.73;0.90;;;;;;;19.48;30.88;100092.01;1805362;78;21184;-76
2021/05/07 10:04:53;;;;;;;2.23;0.80;;;;;;;19.64;31.07;100087.63;1811416;78;21208;-76
2021/05/07 10:07:20;;;;;;;1.60;0.90;;;;;;;19.79;30.36;100081.64;1819752;78;21108;-76
2021/05/07 10:09:49;;;;;;;3.17;1.30;;;;;;;19.92;30.73;100081.15;1820750;78;21152;-77
2021/05/07 10:12:20;;;;;;;2.30;1.00;;;;;;;20.00;30.39;100072.14;1800140;77;21639;-77
2021/05/07 10:14:48;;;;;;;1.90;0.80;;;;;;;20.06;29.99;100081.66;1756785;80;21650;-77
2021/05/07 10:17:16;;;;;;;1.63;0.93;;;;;;;20.12;29.95;100071.41;1808042;78;21168;-75
2021/05/07 10:19:45;;;;;;;1.57;0.90;;;;;;;20.17;29.48;100071.22;1800804;78;21167;-76
2021/05/07 10:22:15;;;;;;;4.80;1.40;;;;;;;20.18;29.63;100067.37;1799103;77;21174;-72
2021/05/07 10:24:43;;;;;;;3.90;1.30;;;;;;;20.11;29.74;100061.13;1809186;78;21268;-73
2021/05/07 10:27:20;;;;;;;2.97;1.20;;;;;;;19.97;29.61;100062.52;1808749;78;21235;-73
2021/05/07 10:29:59;;;;;;;2.53;1.10;;;;;;;19.66;29.81;100064.52;1799315;78;21204;-73
2021/05/07 10:32:37;;;;;;;3.70;1.27;;;;;;;19.53;30.21;100057.41;1805667;77;21183;-76
2021/05/07 10:35:07;;;;;;;3.07;1.07;;;;;;;19.45;30.24;100049.58;1790586;78;21136;-77
2021/05/07 10:37:42;;;;;;;2.60;0.90;;;;;;;19.34;30.19;100047.56;1802027;78;21267;-77
2021/05/07 10:40:13;;;;;;;3.80;1.10;;;;;;;19.27;30.25;100046.73;1793487;78;21159;-76
2021/05/07 10:42:41;;;;;;;2.42;1.00;;;;;;;19.18;29.98;100042.73;1772957;80;21227;-77
2021/05/07 10:45:11;;;;;;;2.37;1.10;;;;;;;19.06;29.61;100038.58;1751035;81;21168;-76
2021/05/07 10:47:40;;;;;;;3.27;0.90;;;;;;;18.93;29.64;100033.62;1723204;83;21683;-76
2021/05/07 10:50:18;;;;;;;3.20;1.10;;;;;;;18.82;29.70;100017.52;1773512;80;21663;-77
2021/05/07 10:52:46;;;;;;;3.43;1.03;;;;;;;18.78;29.22;100012.50;1782832;80;21609;-77
2021/05/07 10:55:15;;;;;;;3.67;1.20;;;;;;;18.81;29.80;100002.39;1743230;81;21103;-77
2021/05/07 10:57:43;;;;;;;3.87;1.30;;;;;;;19.00;30.30;99998.48;1726411;83;21132;-78
2021/05/07 11:00:15;;;;;;;3.30;1.20;;;;;;;19.25;30.60;99989.42;1720988;81;21186;-77
2021/05/07 11:02:51;;;;;;;4.77;1.10;;;;;;;19.44;30.63;99988.39;1775800;80;21366;-75
2021/05/07 11:05:46;;;;;;;3.57;1.23;;;;;;;19.65;29.78;99980.88;1723103;83;21252;-77
2021/05/07 11:08:14;;;;;;;3.83;1.40;;;;;;;19.85;29.59;99977.91;1700647;81;21267;-75
2021/05/07 11:10:43;;;;;;;3.70;1.13;;;;;;;20.08;29.75;99968.83;1698245;84;21618;-76
2021/05/07 11:13:11;;;;;;;4.03;1.30;;;;;;;20.19;29.48;99967.27;1771698;80;21238;-76
2021/05/07 11:15:41;;;;;;;3.13;1.10;;;;;;;20.24;28.92;99960.85;1765888;80;21187;-75
2021/05/07 11:18:11;;;;;;;3.73;1.10;;;;;;;20.18;28.42;99956.20;1714807;83;21234;-77
2021/05/07 11:20:43;;;;;;;3.53;1.30;;;;;;;20.12;28.49;99957.54;1737484;82;21211;-75
2021/05/07 11:23:12;;;;;;;3.13;0.93;;;;;;;20.09;28.61;99964.42;1778682;80;21706;-76
2021/05/07 11:25:41;;;;;;;3.57;1.27;;;;;;;20.04;28.25;99956.52;1764783;80;21184;-75
2021/05/07 11:28:15;;;;;;;4.53;1.13;;;;;;;20.03;28.74;99954.13;1714539;83;21247;-75
2021/05/07 11:30:55;;;;;;;2.40;1.10;;;;;;;20.01;28.90;99953.68;1706521;83;21227;-76
2021/05/07 11:33:26;;;;;;;3.87;1.37;;;;;;;19.97;28.78;99944.61;1717429;83;21216;-76
2021/05/07 11:36:11;;;;;;;2.72;1.00;;;;;;;19.92;28.95;99930.72;1740204;81;21313;-77
2021/05/07 11:38:42;;;;;;;4.43;0.87;;;;;;;19.87;29.08;99930.92;1727138;83;21160;-76
2021/05/07 11:41:25;;;;;;;6.77;1.40;;;;;;;19.87;29.19;99924.96;1787807;80;21198;-76
2021/05/07 11:43:54;;;;;;;3.70;1.20;;;;;;;19.86;29.45;99924.71;1774038;78;21443;-76
2021/05/07 11:46:23;;;;;;;3.17;1.13;;;;;;;19.86;29.23;99912.52;1747092;81;21151;-76
2021/05/07 11:48:51;;;;;;;2.97;1.30;;;;;;;19.88;29.50;99915.70;1749256;81;22293;-74